sensor_id;sensor_type;location;lat;lon;timestamp;P1;durP1;ratioP1;P2;durP2;ratioP2
53299;SDS011;39187;48.476;8.310;2023-11-19T00:02:08;0.40;;;0.40;;
53299;SDS011;39187;48.476;8.310;2023-11-19T00:04:37;0.43;;;0.40;;
53299;SDS011;39187;48.476;8.310;2023-11-19T00:07:06;0.40;;;0.40;;
53299;SDS011;39187;48.476;8.310;2023-11-19T00:09:33;0.40;;;0.40;;
53299;SDS011;39187;48.476;8.310;2023-11-19T00:12:02;3.27;;;0.40;;
53299;SDS011;39187;48.476;8.310;2023-11-19T00:14:27;0.40;;;0.40;;
53299;SDS011;39187;48.476;8.310;2023-11-19T00:16:54;0.40;;;0.40;;
53299;SDS011;39187;48.476;8.310;2023-11-19T00:19:20;0.40;;;0.40;;
53299;SDS011;39187;48.476;8.310;2023-11-19T00:21:46;0.40;;;0.40;;
53299;SDS011;39187;48.476;8.310;2023-11-19T00:24:12;0.40;;;0.40;;
53299;SDS011;39187;48.476;8.310;2023-11-19T00:26:38;0.40;;;0.40;;
53299;SDS011;39187;48.476;8.310;2023-11-19T00:29:04;0.47;;;0.47;;
53299;SDS011;39187;48.476;8.310;2023-11-19T00:31:31;0.50;;;0.40;;
53299;SDS011;39187;48.476;8.310;2023-11-19T00:33:56;0.40;;;0.40;;
53299;SDS011;39187;48.476;8.310;2023-11-19T00:36:22;3.43;;;0.50;;
53299;SDS011;39187;48.476;8.310;2023-11-19T00:38:49;0.50;;;0.40;;
53299;SDS011;39187;48.476;8.310;2023-11-19T00:41:15;0.40;;;0.40;;
53299;SDS011;39187;48.476;8.310;2023-11-19T00:43:42;0.40;;;0.40;;
53299;SDS011;39187;48.476;8.310;2023-11-19T00:46:07;1.57;;;0.80;;
53299;SDS011;39187;48.476;8.310;2023-11-19T00:48:33;0.40;;;0.40;;
53299;SDS011;39187;48.476;8.310;2023-11-19T00:50:59;0.40;;;0.40;;
53299;SDS011;39187;48.476;8.310;2023-11-19T00:53:24;0.50;;;0.50;;
53299;SDS011;39187;48.476;8.310;2023-11-19T00:55:50;0.40;;;0.40;;
53299;SDS011;39187;48.476;8.310;2023-11-19T00:58:16;0.40;;;0.40;;
53299;SDS011;39187;48.476;8.310;2023-11-19T01:00:43;0.40;;;0.40;;
53299;SDS011;39187;48.476;8.310;2023-11-19T01:03:10;0.50;;;0.50;;
53299;SDS011;39187;48.476;8.310;2023-11-19T01:05:36;0.47;;;0.47;;
53299;SDS011;39187;48.476;8.310;2023-11-19T01:08:02;0.47;;;0.47;;
53299;SDS011;39187;48.476;8.310;2023-11-19T01:10:29;0.70;;;0.40;;
53299;SDS011;39187;48.476;8.310;2023-11-19T01:12:55;0.40;;;0.40;;
53299;SDS011;39187;48.476;8.310;2023-11-19T01:15:21;0.50;;;0.50;;
53299;SDS011;39187;48.476;8.310;2023-11-19T01:17:48;0.80;;;0.60;;
53299;SDS011;39187;48.476;8.310;2023-11-19T01:20:13;0.50;;;0.40;;
53299;SDS011;39187;48.476;8.310;2023-11-19T01:22:40;2.13;;;0.57;;
53299;SDS011;39187;48.476;8.310;2023-11-19T01:25:06;0.60;;;0.60;;
53299;SDS011;39187;48.476;8.310;2023-11-19T01:27:32;0.60;;;0.60;;
53299;SDS011;39187;48.476;8.310;2023-11-19T01:30:02;0.60;;;0.60;;
53299;SDS011;39187;48.476;8.310;2023-11-19T01:32:34;0.60;;;0.60;;
53299;SDS011;39187;48.476;8.310;2023-11-19T01:35:02;1.50;;;0.50;;
53299;SDS011;39187;48.476;8.310;2023-11-19T01:37:29;0.50;;;0.50;;
53299;SDS011;39187;48.476;8.310;2023-11-19T01:39:54;0.50;;;0.50;;
53299;SDS011;39187;48.476;8.310;2023-11-19T01:42:20;0.50;;;0.50;;
53299;SDS011;39187;48.476;8.310;2023-11-19T01:44:56;0.50;;;0.43;;
53299;SDS011;39187;48.476;8.310;2023-11-19T01:47:24;0.60;;;0.60;;
53299;SDS011;39187;48.476;8.310;2023-11-19T01:49:50;0.50;;;0.50;;
53299;SDS011;39187;48.476;8.310;2023-11-19T01:52:17;0.70;;;0.50;;
53299;SDS011;39187;48.476;8.310;2023-11-19T01:54:43;0.50;;;0.50;;
53299;SDS011;39187;48.476;8.310;2023-11-19T01:57:08;0.50;;;0.50;;
53299;SDS011;39187;48.476;8.310;2023-11-19T01:59:34;0.50;;;0.50;;
53299;SDS011;39187;48.476;8.310;2023-11-19T02:02:00;0.50;;;0.50;;
53299;SDS011;39187;48.476;8.310;2023-11-19T02:04:26;0.93;;;0.50;;
53299;SDS011;39187;48.476;8.310;2023-11-19T02:06:53;0.50;;;0.50;;
53299;SDS011;39187;48.476;8.310;2023-11-19T02:09:21;0.50;;;0.50;;
53299;SDS011;39187;48.476;8.310;2023-11-19T02:11:47;0.50;;;0.50;;
53299;SDS011;39187;48.476;8.310;2023-11-19T02:14:19;0.60;;;0.60;;
53299;SDS011;39187;48.476;8.310;2023-11-19T02:16:50;0.50;;;0.50;;
53299;SDS011;39187;48.476;8.310;2023-11-19T02:19:18;0.50;;;0.50;;
53299;SDS011;39187;48.476;8.310;2023-11-19T02:21:45;0.50;;;0.50;;
53299;SDS011;39187;48.476;8.310;2023-11-19T02:24:10;0.50;;;0.50;;
53299;SDS011;39187;48.476;8.310;2023-11-19T02:26:39;0.50;;;0.50;;
53299;SDS011;39187;48.476;8.310;2023-11-19T02:29:12;0.50;;;0.50;;
53299;SDS011;39187;48.476;8.310;2023-11-19T02:31:38;0.70;;;0.40;;
53299;SDS011;39187;48.476;8.310;2023-11-19T02:34:04;0.40;;;0.40;;
53299;SDS011;39187;48.476;8.310;2023-11-19T02:36:31;0.50;;;0.50;;
53299;SDS011;39187;48.476;8.310;2023-11-19T02:38:57;0.50;;;0.50;;
53299;SDS011;39187;48.476;8.310;2023-11-19T02:41:23;0.40;;;0.40;;
53299;SDS011;39187;48.476;8.310;2023-11-19T02:43:49;0.50;;;0.40;;
53299;SDS011;39187;48.476;8.310;2023-11-19T02:46:15;0.43;;;0.40;;
53299;SDS011;39187;48.476;8.310;2023-11-19T02:48:42;1.87;;;0.40;;
53299;SDS011;39187;48.476;8.310;2023-11-19T02:51:09;0.50;;;0.50;;
53299;SDS011;39187;48.476;8.310;2023-11-19T02:53:35;0.50;;;0.47;;
53299;SDS011;39187;48.476;8.310;2023-11-19T02:56:02;0.60;;;0.50;;
53299;SDS011;39187;48.476;8.310;2023-11-19T02:58:37;0.50;;;0.50;;
53299;SDS011;39187;48.476;8.310;2023-11-19T03:01:04;0.40;;;0.40;;
53299;SDS011;39187;48.476;8.310;2023-11-19T03:03:38;0.40;;;0.40;;
53299;SDS011;39187;48.476;8.310;2023-11-19T03:06:05;0.40;;;0.40;;
53299;SDS011;39187;48.476;8.310;2023-11-19T03:08:32;170.17;;;7.30;;
53299;SDS011;39187;48.476;8.310;2023-11-19T03:10:58;264.80;;;11.30;;
53299;SDS011;39187;48.476;8.310;2023-11-19T03:13:24;437.87;;;18.30;;
53299;SDS011;39187;48.476;8.310;2023-11-19T03:15:49;321.63;;;12.50;;
53299;SDS011;39187;48.476;8.310;2023-11-19T03:18:16;475.20;;;16.30;;
53299;SDS011;39187;48.476;8.310;2023-11-19T03:20:42;480.80;;;17.60;;
53299;SDS011;39187;48.476;8.310;2023-11-19T03:23:07;336.90;;;13.10;;
53299;SDS011;39187;48.476;8.310;2023-11-19T03:25:33;640.50;;;28.50;;
53299;SDS011;39187;48.476;8.310;2023-11-19T03:27:59;741.33;;;32.20;;
53299;SDS011;39187;48.476;8.310;2023-11-19T03:30:28;637.30;;;25.73;;
53299;SDS011;39187;48.476;8.310;2023-11-19T03:32:58;470.33;;;18.53;;
53299;SDS011;39187;48.476;8.310;2023-11-19T03:35:24;418.50;;;15.47;;
53299;SDS011;39187;48.476;8.310;2023-11-19T03:37:50;637.60;;;24.47;;
53299;SDS011;39187;48.476;8.310;2023-11-19T03:40:16;405.77;;;14.33;;
53299;SDS011;39187;48.476;8.310;2023-11-19T03:42:44;433.63;;;15.93;;
53299;SDS011;39187;48.476;8.310;2023-11-19T03:45:10;469.37;;;19.17;;
53299;SDS011;39187;48.476;8.310;2023-11-19T03:47:36;349.23;;;11.77;;
53299;SDS011;39187;48.476;8.310;2023-11-19T03:50:02;230.73;;;8.97;;
53299;SDS011;39187;48.476;8.310;2023-11-19T03:52:29;371.27;;;13.53;;
53299;SDS011;39187;48.476;8.310;2023-11-19T03:54:55;352.87;;;13.70;;
53299;SDS011;39187;48.476;8.310;2023-11-19T03:57:22;481.63;;;17.77;;
53299;SDS011;39187;48.476;8.310;2023-11-19T03:59:47;443.77;;;15.13;;
53299;SDS011;39187;48.476;8.310;2023-11-19T04:02:13;366.87;;;13.53;;
53299;SDS011;39187;48.476;8.310;2023-11-19T04:04:39;466.17;;;17.53;;
53299;SDS011;39187;48.476;8.310;2023-11-19T04:07:05;422.63;;;16.40;;
53299;SDS011;39187;48.476;8.310;2023-11-19T04:09:31;438.87;;;16.77;;
53299;SDS011;39187;48.476;8.310;2023-11-19T04:12:00;174.50;;;6.53;;
53299;SDS011;39187;48.476;8.310;2023-11-19T04:14:26;484.47;;;17.50;;
53299;SDS011;39187;48.476;8.310;2023-11-19T04:16:52;300.03;;;11.80;;
53299;SDS011;39187;48.476;8.310;2023-11-19T04:19:18;624.23;;;22.60;;
53299;SDS011;39187;48.476;8.310;2023-11-19T04:21:44;545.33;;;20.47;;
53299;SDS011;39187;48.476;8.310;2023-11-19T04:24:10;361.07;;;13.60;;
53299;SDS011;39187;48.476;8.310;2023-11-19T04:26:43;632.17;;;23.87;;
53299;SDS011;39187;48.476;8.310;2023-11-19T04:29:13;233.93;;;7.33;;
53299;SDS011;39187;48.476;8.310;2023-11-19T04:31:43;393.60;;;14.47;;
53299;SDS011;39187;48.476;8.310;2023-11-19T04:34:09;410.53;;;14.90;;
53299;SDS011;39187;48.476;8.310;2023-11-19T04:36:36;401.47;;;13.40;;
53299;SDS011;39187;48.476;8.310;2023-11-19T04:39:02;489.77;;;18.73;;
53299;SDS011;39187;48.476;8.310;2023-11-19T04:41:49;233.83;;;7.40;;
53299;SDS011;39187;48.476;8.310;2023-11-19T04:44:16;238.03;;;9.50;;
53299;SDS011;39187;48.476;8.310;2023-11-19T04:46:42;283.67;;;11.50;;
53299;SDS011;39187;48.476;8.310;2023-11-19T04:49:10;338.80;;;13.60;;
53299;SDS011;39187;48.476;8.310;2023-11-19T04:51:43;421.57;;;15.83;;
53299;SDS011;39187;48.476;8.310;2023-11-19T04:54:12;364.60;;;15.13;;
53299;SDS011;39187;48.476;8.310;2023-11-19T04:56:37;209.33;;;8.30;;
53299;SDS011;39187;48.476;8.310;2023-11-19T04:59:04;353.00;;;12.17;;
53299;SDS011;39187;48.476;8.310;2023-11-19T05:01:31;317.17;;;12.40;;
53299;SDS011;39187;48.476;8.310;2023-11-19T05:04:00;196.37;;;7.10;;
53299;SDS011;39187;48.476;8.310;2023-11-19T05:06:27;201.10;;;7.40;;
53299;SDS011;39187;48.476;8.310;2023-11-19T05:08:59;247.20;;;8.17;;
53299;SDS011;39187;48.476;8.310;2023-11-19T05:11:34;286.53;;;10.00;;
53299;SDS011;39187;48.476;8.310;2023-11-19T05:14:02;192.13;;;6.90;;
53299;SDS011;39187;48.476;8.310;2023-11-19T05:16:29;159.20;;;5.23;;
53299;SDS011;39187;48.476;8.310;2023-11-19T05:18:54;176.83;;;7.00;;
53299;SDS011;39187;48.476;8.310;2023-11-19T05:21:20;163.93;;;6.53;;
53299;SDS011;39187;48.476;8.310;2023-11-19T05:23:46;469.77;;;17.97;;
53299;SDS011;39187;48.476;8.310;2023-11-19T05:26:18;310.47;;;12.03;;
53299;SDS011;39187;48.476;8.310;2023-11-19T05:28:48;286.90;;;9.70;;
53299;SDS011;39187;48.476;8.310;2023-11-19T05:31:14;276.57;;;10.43;;
53299;SDS011;39187;48.476;8.310;2023-11-19T05:33:41;144.50;;;4.97;;
53299;SDS011;39187;48.476;8.310;2023-11-19T05:36:06;242.53;;;8.30;;
53299;SDS011;39187;48.476;8.310;2023-11-19T05:38:33;150.13;;;5.23;;
53299;SDS011;39187;48.476;8.310;2023-11-19T05:41:00;416.10;;;14.13;;
53299;SDS011;39187;48.476;8.310;2023-11-19T05:43:25;157.30;;;6.10;;
53299;SDS011;39187;48.476;8.310;2023-11-19T05:45:51;320.23;;;12.20;;
53299;SDS011;39187;48.476;8.310;2023-11-19T05:48:16;258.07;;;8.80;;
53299;SDS011;39187;48.476;8.310;2023-11-19T05:50:42;176.97;;;7.37;;
53299;SDS011;39187;48.476;8.310;2023-11-19T05:53:07;338.33;;;13.07;;
53299;SDS011;39187;48.476;8.310;2023-11-19T05:55:36;261.10;;;10.80;;
53299;SDS011;39187;48.476;8.310;2023-11-19T05:58:10;294.27;;;8.93;;
53299;SDS011;39187;48.476;8.310;2023-11-19T06:00:37;354.10;;;13.47;;
53299;SDS011;39187;48.476;8.310;2023-11-19T06:03:04;330.67;;;12.47;;
53299;SDS011;39187;48.476;8.310;2023-11-19T06:05:30;315.43;;;11.10;;
53299;SDS011;39187;48.476;8.310;2023-11-19T06:07:55;183.80;;;6.73;;
53299;SDS011;39187;48.476;8.310;2023-11-19T06:10:22;301.87;;;13.83;;
53299;SDS011;39187;48.476;8.310;2023-11-19T06:12:54;301.87;;;10.27;;
53299;SDS011;39187;48.476;8.310;2023-11-19T06:15:22;262.60;;;8.00;;
53299;SDS011;39187;48.476;8.310;2023-11-19T06:17:47;125.27;;;5.13;;
53299;SDS011;39187;48.476;8.310;2023-11-19T06:20:13;75.17;;;3.10;;
53299;SDS011;39187;48.476;8.310;2023-11-19T06:22:39;245.10;;;7.70;;
53299;SDS011;39187;48.476;8.310;2023-11-19T06:25:07;268.43;;;10.33;;
53299;SDS011;39187;48.476;8.310;2023-11-19T06:27:33;271.57;;;8.87;;
53299;SDS011;39187;48.476;8.310;2023-11-19T06:29:59;121.67;;;5.37;;
53299;SDS011;39187;48.476;8.310;2023-11-19T06:32:25;219.73;;;8.27;;
53299;SDS011;39187;48.476;8.310;2023-11-19T06:34:51;218.83;;;9.73;;
53299;SDS011;39187;48.476;8.310;2023-11-19T06:37:16;170.60;;;6.87;;
53299;SDS011;39187;48.476;8.310;2023-11-19T06:39:42;174.60;;;7.97;;
53299;SDS011;39187;48.476;8.310;2023-11-19T06:42:07;151.00;;;6.67;;
53299;SDS011;39187;48.476;8.310;2023-11-19T06:44:33;249.50;;;11.33;;
53299;SDS011;39187;48.476;8.310;2023-11-19T06:46:59;447.70;;;17.23;;
53299;SDS011;39187;48.476;8.310;2023-11-19T06:49:25;473.03;;;17.63;;
53299;SDS011;39187;48.476;8.310;2023-11-19T06:51:50;296.43;;;10.87;;
53299;SDS011;39187;48.476;8.310;2023-11-19T06:54:16;228.60;;;8.70;;
53299;SDS011;39187;48.476;8.310;2023-11-19T06:56:42;243.60;;;9.27;;
53299;SDS011;39187;48.476;8.310;2023-11-19T06:59:07;89.10;;;3.67;;
53299;SDS011;39187;48.476;8.310;2023-11-19T07:01:34;79.40;;;6.17;;
53299;SDS011;39187;48.476;8.310;2023-11-19T07:04:01;8.70;;;1.20;;
53299;SDS011;39187;48.476;8.310;2023-11-19T07:06:33;14.13;;;1.23;;
53299;SDS011;39187;48.476;8.310;2023-11-19T07:08:59;70.80;;;4.37;;
53299;SDS011;39187;48.476;8.310;2023-11-19T07:11:34;2.20;;;0.70;;
53299;SDS011;39187;48.476;8.310;2023-11-19T07:14:03;1.47;;;0.70;;
53299;SDS011;39187;48.476;8.310;2023-11-19T07:16:29;0.70;;;0.70;;
53299;SDS011;39187;48.476;8.310;2023-11-19T07:18:56;31.37;;;2.10;;
53299;SDS011;39187;48.476;8.310;2023-11-19T07:21:21;8.00;;;1.53;;
53299;SDS011;39187;48.476;8.310;2023-11-19T07:23:47;0.83;;;0.83;;
53299;SDS011;39187;48.476;8.310;2023-11-19T07:26:12;1.03;;;1.00;;
53299;SDS011;39187;48.476;8.310;2023-11-19T07:28:38;80.87;;;4.70;;
53299;SDS011;39187;48.476;8.310;2023-11-19T07:31:05;7.20;;;1.73;;
53299;SDS011;39187;48.476;8.310;2023-11-19T07:33:33;14.87;;;1.67;;
53299;SDS011;39187;48.476;8.310;2023-11-19T07:35:58;36.77;;;2.90;;
53299;SDS011;39187;48.476;8.310;2023-11-19T07:38:24;21.60;;;3.13;;
53299;SDS011;39187;48.476;8.310;2023-11-19T07:40:50;1.73;;;1.27;;
53299;SDS011;39187;48.476;8.310;2023-11-19T07:43:15;1.07;;;1.07;;
53299;SDS011;39187;48.476;8.310;2023-11-19T07:45:41;1.40;;;1.30;;
53299;SDS011;39187;48.476;8.310;2023-11-19T07:48:09;1.77;;;0.90;;
53299;SDS011;39187;48.476;8.310;2023-11-19T07:50:35;1.50;;;1.40;;
53299;SDS011;39187;48.476;8.310;2023-11-19T07:53:00;1.10;;;1.00;;
53299;SDS011;39187;48.476;8.310;2023-11-19T07:55:27;11.57;;;1.53;;
53299;SDS011;39187;48.476;8.310;2023-11-19T07:57:52;1.87;;;1.40;;
53299;SDS011;39187;48.476;8.310;2023-11-19T08:00:18;1.10;;;1.00;;
53299;SDS011;39187;48.476;8.310;2023-11-19T08:02:44;2.30;;;1.33;;
53299;SDS011;39187;48.476;8.310;2023-11-19T08:05:10;0.80;;;0.80;;
53299;SDS011;39187;48.476;8.310;2023-11-19T08:07:36;6.10;;;1.13;;
53299;SDS011;39187;48.476;8.310;2023-11-19T08:10:02;41.63;;;2.50;;
53299;SDS011;39187;48.476;8.310;2023-11-19T08:12:30;18.87;;;1.63;;
53299;SDS011;39187;48.476;8.310;2023-11-19T08:14:56;49.07;;;3.80;;
53299;SDS011;39187;48.476;8.310;2023-11-19T08:17:23;238.40;;;10.93;;
53299;SDS011;39187;48.476;8.310;2023-11-19T08:19:50;18.23;;;2.10;;
53299;SDS011;39187;48.476;8.310;2023-11-19T08:22:16;2.70;;;1.03;;
53299;SDS011;39187;48.476;8.310;2023-11-19T08:24:42;2.60;;;1.10;;
53299;SDS011;39187;48.476;8.310;2023-11-19T08:27:08;48.03;;;2.87;;
53299;SDS011;39187;48.476;8.310;2023-11-19T08:29:34;136.07;;;7.70;;
53299;SDS011;39187;48.476;8.310;2023-11-19T08:32:02;109.90;;;4.70;;
53299;SDS011;39187;48.476;8.310;2023-11-19T08:34:28;48.97;;;3.47;;
53299;SDS011;39187;48.476;8.310;2023-11-19T08:36:54;49.20;;;2.70;;
53299;SDS011;39187;48.476;8.310;2023-11-19T08:39:21;57.90;;;3.07;;
53299;SDS011;39187;48.476;8.310;2023-11-19T08:41:47;38.47;;;2.00;;
53299;SDS011;39187;48.476;8.310;2023-11-19T08:44:13;84.67;;;3.83;;
53299;SDS011;39187;48.476;8.310;2023-11-19T08:46:39;90.27;;;3.37;;
53299;SDS011;39187;48.476;8.310;2023-11-19T08:49:12;170.70;;;7.10;;
53299;SDS011;39187;48.476;8.310;2023-11-19T08:51:37;206.27;;;9.30;;
53299;SDS011;39187;48.476;8.310;2023-11-19T08:54:03;55.40;;;2.30;;
53299;SDS011;39187;48.476;8.310;2023-11-19T08:56:29;52.80;;;1.97;;
53299;SDS011;39187;48.476;8.310;2023-11-19T08:58:57;0.80;;;0.80;;
53299;SDS011;39187;48.476;8.310;2023-11-19T09:01:23;40.47;;;2.30;;
53299;SDS011;39187;48.476;8.310;2023-11-19T09:03:49;11.53;;;1.30;;
53299;SDS011;39187;48.476;8.310;2023-11-19T09:06:15;25.23;;;1.83;;
53299;SDS011;39187;48.476;8.310;2023-11-19T09:08:44;74.50;;;4.23;;
53299;SDS011;39187;48.476;8.310;2023-11-19T09:11:10;8.80;;;1.07;;
53299;SDS011;39187;48.476;8.310;2023-11-19T09:13:35;1.07;;;0.80;;
53299;SDS011;39187;48.476;8.310;2023-11-19T09:16:01;0.70;;;0.70;;
53299;SDS011;39187;48.476;8.310;2023-11-19T09:18:30;26.03;;;1.77;;
53299;SDS011;39187;48.476;8.310;2023-11-19T09:20:57;60.53;;;2.93;;
53299;SDS011;39187;48.476;8.310;2023-11-19T09:23:23;7.40;;;1.40;;
53299;SDS011;39187;48.476;8.310;2023-11-19T09:25:50;2.60;;;1.20;;
53299;SDS011;39187;48.476;8.310;2023-11-19T09:28:16;0.70;;;0.70;;
53299;SDS011;39187;48.476;8.310;2023-11-19T09:30:42;0.90;;;0.90;;
53299;SDS011;39187;48.476;8.310;2023-11-19T09:33:07;0.70;;;0.70;;
53299;SDS011;39187;48.476;8.310;2023-11-19T09:35:33;0.70;;;0.70;;
53299;SDS011;39187;48.476;8.310;2023-11-19T09:37:58;0.70;;;0.70;;
53299;SDS011;39187;48.476;8.310;2023-11-19T09:40:24;1.53;;;1.20;;
53299;SDS011;39187;48.476;8.310;2023-11-19T09:42:50;17.80;;;2.90;;
53299;SDS011;39187;48.476;8.310;2023-11-19T09:45:17;3.07;;;1.73;;
53299;SDS011;39187;48.476;8.310;2023-11-19T09:47:46;29.47;;;2.07;;
53299;SDS011;39187;48.476;8.310;2023-11-19T09:50:21;8.50;;;1.30;;
53299;SDS011;39187;48.476;8.310;2023-11-19T09:52:47;7.43;;;1.13;;
53299;SDS011;39187;48.476;8.310;2023-11-19T09:55:12;1.73;;;0.73;;
53299;SDS011;39187;48.476;8.310;2023-11-19T09:57:39;1.93;;;1.47;;
53299;SDS011;39187;48.476;8.310;2023-11-19T10:00:07;0.80;;;0.80;;
53299;SDS011;39187;48.476;8.310;2023-11-19T10:02:33;1.13;;;1.03;;
53299;SDS011;39187;48.476;8.310;2023-11-19T10:05:06;0.70;;;0.70;;
53299;SDS011;39187;48.476;8.310;2023-11-19T10:07:32;1.00;;;0.90;;
53299;SDS011;39187;48.476;8.310;2023-11-19T10:09:59;4.57;;;0.80;;
53299;SDS011;39187;48.476;8.310;2023-11-19T10:12:26;1.00;;;1.00;;
53299;SDS011;39187;48.476;8.310;2023-11-19T10:14:53;1.00;;;1.00;;
53299;SDS011;39187;48.476;8.310;2023-11-19T10:17:22;1.00;;;0.90;;
53299;SDS011;39187;48.476;8.310;2023-11-19T10:20:01;0.80;;;0.80;;
53299;SDS011;39187;48.476;8.310;2023-11-19T10:22:28;1.03;;;0.90;;
53299;SDS011;39187;48.476;8.310;2023-11-19T10:24:54;3.23;;;0.73;;
53299;SDS011;39187;48.476;8.310;2023-11-19T10:27:19;0.50;;;0.50;;
53299;SDS011;39187;48.476;8.310;2023-11-19T10:29:48;0.90;;;0.90;;
53299;SDS011;39187;48.476;8.310;2023-11-19T10:32:14;1.37;;;1.20;;
53299;SDS011;39187;48.476;8.310;2023-11-19T10:34:42;0.77;;;0.77;;
53299;SDS011;39187;48.476;8.310;2023-11-19T10:37:08;0.70;;;0.70;;
53299;SDS011;39187;48.476;8.310;2023-11-19T10:39:53;1.43;;;1.03;;
53299;SDS011;39187;48.476;8.310;2023-11-19T10:42:20;1.27;;;0.90;;
53299;SDS011;39187;48.476;8.310;2023-11-19T10:44:45;0.90;;;0.90;;
53299;SDS011;39187;48.476;8.310;2023-11-19T10:47:11;0.90;;;0.90;;
53299;SDS011;39187;48.476;8.310;2023-11-19T10:49:39;0.90;;;0.73;;
53299;SDS011;39187;48.476;8.310;2023-11-19T10:52:07;1.27;;;0.60;;
53299;SDS011;39187;48.476;8.310;2023-11-19T10:54:34;0.80;;;0.70;;
53299;SDS011;39187;48.476;8.310;2023-11-19T10:57:01;0.80;;;0.80;;
53299;SDS011;39187;48.476;8.310;2023-11-19T10:59:28;22.77;;;1.50;;
53299;SDS011;39187;48.476;8.310;2023-11-19T11:01:56;3.43;;;0.83;;
53299;SDS011;39187;48.476;8.310;2023-11-19T11:04:22;0.70;;;0.70;;
53299;SDS011;39187;48.476;8.310;2023-11-19T11:06:51;0.50;;;0.50;;
53299;SDS011;39187;48.476;8.310;2023-11-19T11:09:16;0.77;;;0.77;;
53299;SDS011;39187;48.476;8.310;2023-11-19T11:11:46;1.27;;;0.77;;
53299;SDS011;39187;48.476;8.310;2023-11-19T11:14:13;2.20;;;0.80;;
53299;SDS011;39187;48.476;8.310;2023-11-19T11:16:42;1.33;;;0.70;;
53299;SDS011;39187;48.476;8.310;2023-11-19T11:19:09;1.03;;;0.90;;
53299;SDS011;39187;48.476;8.310;2023-11-19T11:21:36;1.40;;;1.10;;
53299;SDS011;39187;48.476;8.310;2023-11-19T11:32:45;1.77;;;0.90;;
53299;SDS011;39187;48.476;8.310;2023-11-19T11:38:13;2.60;;;1.00;;
53299;SDS011;39187;48.476;8.310;2023-11-19T11:40:40;2.07;;;1.07;;
53299;SDS011;39187;48.476;8.310;2023-11-19T11:43:43;0.93;;;0.93;;
53299;SDS011;39187;48.476;8.310;2023-11-19T11:46:56;1.53;;;1.40;;
53299;SDS011;39187;48.476;8.310;2023-11-19T11:48:59;5.10;;;1.37;;
53299;SDS011;39187;48.476;8.310;2023-11-19T11:54:11;5.87;;;1.93;;
53299;SDS011;39187;48.476;8.310;2023-11-19T11:57:07;1.13;;;1.10;;
53299;SDS011;39187;48.476;8.310;2023-11-19T11:59:37;1.67;;;1.57;;
53299;SDS011;39187;48.476;8.310;2023-11-19T12:02:03;2.00;;;1.80;;
53299;SDS011;39187;48.476;8.310;2023-11-19T12:04:29;2.10;;;1.50;;
53299;SDS011;39187;48.476;8.310;2023-11-19T12:07:05;3.67;;;1.00;;
53299;SDS011;39187;48.476;8.310;2023-11-19T12:09:32;3.47;;;1.10;;
53299;SDS011;39187;48.476;8.310;2023-11-19T12:20:00;1.70;;;1.60;;
53299;SDS011;39187;48.476;8.310;2023-11-19T12:22:40;2.50;;;1.50;;
53299;SDS011;39187;48.476;8.310;2023-11-19T12:25:07;2.30;;;1.10;;
53299;SDS011;39187;48.476;8.310;2023-11-19T12:27:40;2.97;;;1.47;;
53299;SDS011;39187;48.476;8.310;2023-11-19T12:30:10;1.30;;;1.20;;
53299;SDS011;39187;48.476;8.310;2023-11-19T12:32:40;1.27;;;1.17;;
53299;SDS011;39187;48.476;8.310;2023-11-19T12:35:07;1.77;;;1.20;;
53299;SDS011;39187;48.476;8.310;2023-11-19T12:37:46;1.20;;;1.10;;
53299;SDS011;39187;48.476;8.310;2023-11-19T12:40:13;1.53;;;1.40;;
53299;SDS011;39187;48.476;8.310;2023-11-19T12:42:41;2.37;;;0.97;;
53299;SDS011;39187;48.476;8.310;2023-11-19T12:45:07;0.90;;;0.90;;
53299;SDS011;39187;48.476;8.310;2023-11-19T12:47:39;2.97;;;1.20;;
53299;SDS011;39187;48.476;8.310;2023-11-19T12:50:06;3.37;;;1.07;;
53299;SDS011;39187;48.476;8.310;2023-11-19T12:52:33;2.20;;;1.30;;
53299;SDS011;39187;48.476;8.310;2023-11-19T12:54:59;2.27;;;1.20;;
53299;SDS011;39187;48.476;8.310;2023-11-19T12:57:40;2.03;;;0.90;;
53299;SDS011;39187;48.476;8.310;2023-11-19T13:00:07;1.73;;;1.13;;
53299;SDS011;39187;48.476;8.310;2023-11-19T13:02:46;3.17;;;1.03;;
53299;SDS011;39187;48.476;8.310;2023-11-19T13:05:31;1.73;;;1.63;;
53299;SDS011;39187;48.476;8.310;2023-11-19T13:11:13;0.93;;;0.93;;
53299;SDS011;39187;48.476;8.310;2023-11-19T13:13:20;0.97;;;0.97;;
53299;SDS011;39187;48.476;8.310;2023-11-19T13:15:46;1.00;;;0.90;;
53299;SDS011;39187;48.476;8.310;2023-11-19T13:18:12;1.20;;;1.20;;
53299;SDS011;39187;48.476;8.310;2023-11-19T13:20:39;2.57;;;0.93;;
53299;SDS011;39187;48.476;8.310;2023-11-19T13:23:05;1.00;;;0.80;;
53299;SDS011;39187;48.476;8.310;2023-11-19T13:25:35;1.97;;;1.13;;
53299;SDS011;39187;48.476;8.310;2023-11-19T13:28:01;2.87;;;0.90;;
53299;SDS011;39187;48.476;8.310;2023-11-19T13:30:27;1.30;;;1.20;;
53299;SDS011;39187;48.476;8.310;2023-11-19T13:32:54;1.53;;;0.77;;
53299;SDS011;39187;48.476;8.310;2023-11-19T13:35:20;1.13;;;1.03;;
53299;SDS011;39187;48.476;8.310;2023-11-19T13:37:46;0.70;;;0.70;;
53299;SDS011;39187;48.476;8.310;2023-11-19T13:40:12;1.83;;;1.00;;
53299;SDS011;39187;48.476;8.310;2023-11-19T13:42:39;1.07;;;0.70;;
53299;SDS011;39187;48.476;8.310;2023-11-19T13:45:07;2.53;;;1.03;;
53299;SDS011;39187;48.476;8.310;2023-11-19T13:47:37;4.10;;;0.90;;
53299;SDS011;39187;48.476;8.310;2023-11-19T13:50:06;0.80;;;0.80;;
53299;SDS011;39187;48.476;8.310;2023-11-19T13:52:34;1.00;;;0.97;;
53299;SDS011;39187;48.476;8.310;2023-11-19T13:55:00;1.20;;;1.20;;
53299;SDS011;39187;48.476;8.310;2023-11-19T13:57:25;1.97;;;1.20;;
53299;SDS011;39187;48.476;8.310;2023-11-19T13:59:51;1.23;;;1.10;;
53299;SDS011;39187;48.476;8.310;2023-11-19T14:02:16;1.00;;;1.00;;
53299;SDS011;39187;48.476;8.310;2023-11-19T14:04:42;2.40;;;0.90;;
53299;SDS011;39187;48.476;8.310;2023-11-19T14:07:07;1.00;;;0.90;;
53299;SDS011;39187;48.476;8.310;2023-11-19T14:09:33;1.53;;;0.90;;
53299;SDS011;39187;48.476;8.310;2023-11-19T14:11:59;2.10;;;0.60;;
53299;SDS011;39187;48.476;8.310;2023-11-19T14:14:24;1.07;;;0.80;;
53299;SDS011;39187;48.476;8.310;2023-11-19T14:16:50;0.70;;;0.70;;
53299;SDS011;39187;48.476;8.310;2023-11-19T14:19:15;2.30;;;0.90;;
53299;SDS011;39187;48.476;8.310;2023-11-19T14:21:41;2.47;;;1.00;;
53299;SDS011;39187;48.476;8.310;2023-11-19T14:24:06;1.07;;;1.00;;
53299;SDS011;39187;48.476;8.310;2023-11-19T14:26:32;0.90;;;0.90;;
53299;SDS011;39187;48.476;8.310;2023-11-19T14:28:58;1.33;;;0.80;;
53299;SDS011;39187;48.476;8.310;2023-11-19T14:31:23;3.93;;;1.10;;
53299;SDS011;39187;48.476;8.310;2023-11-19T14:33:53;1.77;;;0.73;;
53299;SDS011;39187;48.476;8.310;2023-11-19T14:36:19;0.80;;;0.80;;
53299;SDS011;39187;48.476;8.310;2023-11-19T14:38:45;3.80;;;1.10;;
53299;SDS011;39187;48.476;8.310;2023-11-19T14:41:11;1.07;;;1.07;;
53299;SDS011;39187;48.476;8.310;2023-11-19T14:43:38;0.90;;;0.90;;
53299;SDS011;39187;48.476;8.310;2023-11-19T14:46:04;0.90;;;0.90;;
53299;SDS011;39187;48.476;8.310;2023-11-19T14:48:31;1.00;;;0.90;;
53299;SDS011;39187;48.476;8.310;2023-11-19T14:50:57;1.13;;;1.03;;
53299;SDS011;39187;48.476;8.310;2023-11-19T14:53:23;1.43;;;1.13;;
53299;SDS011;39187;48.476;8.310;2023-11-19T14:55:48;1.20;;;1.20;;
53299;SDS011;39187;48.476;8.310;2023-11-19T14:58:14;10.60;;;1.77;;
53299;SDS011;39187;48.476;8.310;2023-11-19T15:00:39;2.40;;;1.20;;
53299;SDS011;39187;48.476;8.310;2023-11-19T15:03:05;1.67;;;1.57;;
53299;SDS011;39187;48.476;8.310;2023-11-19T15:05:31;1.30;;;1.20;;